createdAt,value
2018-09-28T00:01:27.278Z,12.10
2018-09-28T00:03:55.870Z,12.13
2018-09-28T00:06:24.372Z,12.02
2018-09-28T00:08:53.514Z,12.12
2018-09-28T00:11:22.222Z,12.06
2018-09-28T00:13:50.710Z,11.89
2018-09-28T00:16:19.561Z,11.87
2018-09-28T00:18:48.139Z,11.89
2018-09-28T00:21:17.305Z,11.89
2018-09-28T00:23:45.863Z,12.00
2018-09-28T00:26:15.240Z,12.14
2018-09-28T00:28:43.735Z,12.26
2018-09-28T00:31:12.262Z,12.27
2018-09-28T00:33:40.762Z,12.37
2018-09-28T00:36:09.307Z,12.38
2018-09-28T00:38:38.115Z,12.33
2018-09-28T00:41:06.859Z,12.32
2018-09-28T00:43:35.375Z,12.34
2018-09-28T00:46:03.897Z,12.32
2018-09-28T00:48:32.441Z,12.39
2018-09-28T00:51:01.282Z,12.43
2018-09-28T00:53:29.906Z,12.58
2018-09-28T00:55:58.475Z,12.69
2018-09-28T00:58:27.121Z,12.72
2018-09-28T01:00:55.647Z,12.75
2018-09-28T01:03:24.691Z,12.76
2018-09-28T01:05:53.228Z,12.93
2018-09-28T01:08:21.811Z,12.98
2018-09-28T01:10:50.310Z,13.05
2018-09-28T01:13:19.147Z,13.10
2018-09-28T01:15:48.774Z,13.16
2018-09-28T01:18:17.431Z,13.20
2018-09-28T01:20:45.951Z,13.26
2018-09-28T01:23:16.698Z,13.31
2018-09-28T01:25:45.290Z,13.27
2018-09-28T01:28:13.806Z,13.26
2018-09-28T01:30:42.305Z,13.33
2018-09-28T01:33:10.874Z,13.39
2018-09-28T01:35:39.415Z,13.36
2018-09-28T01:38:08.055Z,13.45
2018-09-28T01:40:36.579Z,13.42
2018-09-28T01:43:05.133Z,13.40
2018-09-28T01:45:33.698Z,13.46
2018-09-28T01:48:02.260Z,13.46
2018-09-28T01:50:30.842Z,13.48
2018-09-28T01:52:59.469Z,13.47
2018-09-28T01:55:28.016Z,13.46
2018-09-28T01:57:56.594Z,13.46
2018-09-28T02:00:25.143Z,13.45
2018-09-28T02:02:53.751Z,13.43
2018-09-28T02:05:22.291Z,13.41
2018-09-28T02:07:50.787Z,13.42
2018-09-28T02:10:19.359Z,13.41
2018-09-28T02:12:47.859Z,13.43
2018-09-28T02:15:16.375Z,13.43
2018-09-28T02:17:44.978Z,13.43
2018-09-28T02:20:13.477Z,13.45
2018-09-28T02:22:42.030Z,13.45
2018-09-28T02:25:10.695Z,13.43
2018-09-28T02:27:39.177Z,13.43
2018-09-28T02:30:08.112Z,13.45
2018-09-28T02:32:36.589Z,13.48
2018-09-28T02:35:05.503Z,13.41
2018-09-28T02:37:34.055Z,13.39
2018-09-28T02:40:02.611Z,13.35
2018-09-28T02:42:34.046Z,13.34
2018-09-28T02:45:02.818Z,13.41
2018-09-28T02:47:31.351Z,13.35
2018-09-28T02:49:59.875Z,13.33
2018-09-28T02:52:28.467Z,13.34
2018-09-28T02:54:57.021Z,13.29
2018-09-28T02:57:25.564Z,13.20
2018-09-28T02:59:56.989Z,13.14
2018-09-28T03:02:25.499Z,13.09
2018-09-28T03:04:54.069Z,13.13
2018-09-28T03:07:23.575Z,13.12
2018-09-28T03:09:52.111Z,13.11
2018-09-28T03:12:20.753Z,13.16
2018-09-28T03:14:49.227Z,13.19
2018-09-28T03:17:17.719Z,13.13
2018-09-28T03:19:46.241Z,13.18
2018-09-28T03:22:14.743Z,13.33
2018-09-28T03:24:43.285Z,13.29
2018-09-28T03:27:11.892Z,13.39
2018-09-28T03:29:40.417Z,13.38
2018-09-28T03:32:08.971Z,13.42
2018-09-28T03:34:37.499Z,13.43
2018-09-28T03:37:06.066Z,13.43
2018-09-28T03:39:34.562Z,13.44
2018-09-28T03:42:03.103Z,13.50
2018-09-28T03:44:31.755Z,13.53
2018-09-28T03:47:00.357Z,13.54
2018-09-28T03:49:29.022Z,13.45
2018-09-28T03:51:57.540Z,13.33
2018-09-28T03:54:26.050Z,13.35
2018-09-28T03:56:54.606Z,13.32
2018-09-28T03:59:23.376Z,13.36
2018-09-28T04:01:52.002Z,13.36
2018-09-28T04:04:20.518Z,13.29
2018-09-28T04:06:49.136Z,13.32
2018-09-28T04:09:17.712Z,13.33
2018-09-28T04:11:46.242Z,13.33
2018-09-28T04:14:14.805Z,13.41
2018-09-28T04:16:43.428Z,13.38
2018-09-28T04:19:11.942Z,13.40
2018-09-28T04:21:44.123Z,13.38
2018-09-28T04:24:12.803Z,13.44
2018-09-28T04:26:41.411Z,13.42
2018-09-28T04:29:10.288Z,13.39
2018-09-28T04:31:38.810Z,13.45
2018-09-28T04:34:07.411Z,13.43
2018-09-28T04:36:35.926Z,13.45
2018-09-28T04:39:05.747Z,13.45
2018-09-28T04:41:34.293Z,13.43
2018-09-28T04:44:02.850Z,13.42
2018-09-28T04:46:31.354Z,13.42
2018-09-28T04:48:59.965Z,13.40
2018-09-28T04:51:29.286Z,13.42
2018-09-28T04:53:57.972Z,13.38
2018-09-28T04:56:26.538Z,13.36
2018-09-28T04:58:55.082Z,13.32
2018-09-28T05:01:24.575Z,13.34
2018-09-28T05:03:54.083Z,13.27
2018-09-28T05:06:24.003Z,13.27
2018-09-28T05:08:52.663Z,13.27
2018-09-28T05:11:21.166Z,13.32
2018-09-28T05:13:49.712Z,13.30
2018-09-28T05:16:18.227Z,13.24
2018-09-28T05:18:46.755Z,13.30
2018-09-28T05:21:15.287Z,13.31
2018-09-28T05:23:43.871Z,13.30
2018-09-28T05:26:12.358Z,13.23
2018-09-28T05:28:40.879Z,13.22
2018-09-28T05:31:09.477Z,13.19
2018-09-28T05:33:38.046Z,13.20
2018-09-28T05:36:06.539Z,13.19
2018-09-28T05:38:35.027Z,13.17
2018-09-28T05:41:03.607Z,13.14
2018-09-28T05:43:32.094Z,13.10
2018-09-28T05:46:00.633Z,13.08
2018-09-28T05:48:29.142Z,13.07
2018-09-28T05:50:57.722Z,13.06
2018-09-28T05:53:26.299Z,13.02
2018-09-28T05:55:54.781Z,13.02
2018-09-28T05:58:28.580Z,13.04
2018-09-28T06:01:02.405Z,12.99
2018-09-28T06:03:30.945Z,12.94
2018-09-28T06:06:01.996Z,12.90
2018-09-28T06:08:30.681Z,12.93
2018-09-28T06:10:59.185Z,12.96
2018-09-28T06:13:27.730Z,12.91
2018-09-28T06:15:56.256Z,12.97
2018-09-28T06:18:24.899Z,12.93
2018-09-28T06:20:53.454Z,12.94
2018-09-28T06:23:21.977Z,12.99
2018-09-28T06:25:50.526Z,12.93
2018-09-28T06:28:19.023Z,12.99
2018-09-28T06:30:47.593Z,13.00
2018-09-28T06:33:16.140Z,12.92
2018-09-28T06:35:44.992Z,12.93
2018-09-28T06:38:13.702Z,12.97
2018-09-28T06:40:42.223Z,13.13
2018-09-28T06:43:10.742Z,13.15
2018-09-28T06:45:39.233Z,13.20
2018-09-28T06:48:07.860Z,13.27
2018-09-28T06:50:36.346Z,13.21
2018-09-28T06:53:04.893Z,13.28
2018-09-28T06:55:33.450Z,13.38
2018-09-28T06:58:02.160Z,13.37
2018-09-28T07:00:30.738Z,13.51
2018-09-28T07:02:59.539Z,13.53
2018-09-28T07:05:28.030Z,13.63
2018-09-28T07:07:56.531Z,13.70
2018-09-28T07:10:25.116Z,13.73
2018-09-28T07:12:53.652Z,13.64
2018-09-28T07:15:22.230Z,13.65
2018-09-28T07:17:50.807Z,13.62
2018-09-28T07:20:19.288Z,13.55
2018-09-28T07:22:47.802Z,13.55
2018-09-28T07:25:16.406Z,13.59
2018-09-28T07:27:45.239Z,13.69
2018-09-28T07:30:13.832Z,13.66
2018-09-28T07:32:42.355Z,13.69
2018-09-28T07:35:10.870Z,13.62
2018-09-28T07:37:39.470Z,13.59
2018-09-28T07:40:08.011Z,13.62
2018-09-28T07:42:36.524Z,13.80
2018-09-28T07:45:05.103Z,13.97
2018-09-28T07:47:33.635Z,14.07
2018-09-28T07:50:02.147Z,14.00
2018-09-28T07:52:30.702Z,13.91
2018-09-28T07:54:59.195Z,13.77
2018-09-28T07:57:27.723Z,13.75
2018-09-28T07:59:56.214Z,13.68
2018-09-28T08:02:24.682Z,13.54
2018-09-28T08:04:53.581Z,13.56
2018-09-28T08:07:22.117Z,13.74
2018-09-28T08:09:50.703Z,14.10
2018-09-28T08:12:19.321Z,14.49
2018-09-28T08:14:47.833Z,14.68
2018-09-28T08:17:16.345Z,15.02
2018-09-28T08:19:44.840Z,15.17
2018-09-28T08:22:13.426Z,15.48
2018-09-28T08:24:42.047Z,15.11
2018-09-28T08:27:10.540Z,15.16
2018-09-28T08:29:39.088Z,14.85
2018-09-28T08:32:07.990Z,14.82
2018-09-28T08:34:36.538Z,14.94
2018-09-28T08:37:05.084Z,15.10
2018-09-28T08:39:33.865Z,15.01
2018-09-28T08:42:02.404Z,15.09
2018-09-28T08:44:30.955Z,14.89
2018-09-28T08:46:59.542Z,14.66
2018-09-28T08:49:28.101Z,14.65
2018-09-28T08:51:57.083Z,14.55
2018-09-28T08:54:25.631Z,14.52
2018-09-28T08:56:54.226Z,14.52
2018-09-28T08:59:22.766Z,14.54
2018-09-28T09:01:51.646Z,14.44
2018-09-28T09:04:20.192Z,14.28
2018-09-28T09:06:48.731Z,14.14
2018-09-28T09:09:17.260Z,14.17
2018-09-28T09:11:45.812Z,14.20
2018-09-28T09:14:14.406Z,14.56
2018-09-28T09:16:42.952Z,14.75
2018-09-28T09:19:11.747Z,14.84
2018-09-28T09:21:40.303Z,15.18
2018-09-28T09:24:08.853Z,15.56
2018-09-28T09:26:37.399Z,15.74
2018-09-28T09:29:05.937Z,15.54
2018-09-28T09:31:34.484Z,15.72
2018-09-28T09:34:03.034Z,16.04
2018-09-28T09:36:31.560Z,15.77
2018-09-28T09:39:00.106Z,15.55
2018-09-28T09:41:28.656Z,15.69
2018-09-28T09:43:57.174Z,15.75
2018-09-28T09:46:25.707Z,15.94
2018-09-28T09:48:54.205Z,15.60
2018-09-28T09:51:22.725Z,15.33
2018-09-28T09:53:51.276Z,15.28
2018-09-28T09:56:19.787Z,15.31
2018-09-28T09:58:48.278Z,15.59
2018-09-28T10:01:22.181Z,15.79
2018-09-28T10:03:51.656Z,16.08
2018-09-28T10:06:20.330Z,15.67
2018-09-28T10:08:49.730Z,15.43
2018-09-28T10:11:18.304Z,15.50
2018-09-28T10:13:46.879Z,15.59
2018-09-28T10:16:15.382Z,15.66
2018-09-28T10:18:44.459Z,15.63
2018-09-28T10:21:13.063Z,15.23
2018-09-28T10:23:41.562Z,15.36
2018-09-28T10:26:10.111Z,15.36
2018-09-28T10:28:38.747Z,15.06
2018-09-28T10:31:07.296Z,14.90
2018-09-28T10:33:35.897Z,14.76
2018-09-28T10:36:04.357Z,14.86
2018-09-28T10:38:32.907Z,15.08
2018-09-28T10:41:01.542Z,15.34
2018-09-28T10:43:30.055Z,15.38
2018-09-28T10:45:58.579Z,15.33
2018-09-28T10:48:27.086Z,15.28
2018-09-28T10:50:55.668Z,15.45
2018-09-28T10:53:24.179Z,15.62
2018-09-28T10:55:52.679Z,15.96
2018-09-28T10:58:21.242Z,16.22
2018-09-28T11:00:49.857Z,16.51
2018-09-28T11:03:18.478Z,16.50
2018-09-28T11:05:46.984Z,16.23
2018-09-28T11:08:15.586Z,16.06
2018-09-28T11:10:44.208Z,16.06
2018-09-28T11:13:12.826Z,15.76
2018-09-28T11:15:41.421Z,15.36
2018-09-28T11:18:09.914Z,15.37
2018-09-28T11:20:38.430Z,15.05
2018-09-28T11:23:07.007Z,15.02
2018-09-28T11:25:35.570Z,15.00
2018-09-28T11:28:04.099Z,14.92
2018-09-28T11:30:32.623Z,14.83
2018-09-28T11:33:01.302Z,14.78
2018-09-28T11:35:29.826Z,14.58
2018-09-28T11:37:58.341Z,14.50
2018-09-28T11:40:26.833Z,14.48
2018-09-28T11:42:55.356Z,14.65
2018-09-28T11:45:23.900Z,15.03
2018-09-28T11:47:52.422Z,15.35
2018-09-28T11:50:20.934Z,15.55
2018-09-28T11:52:49.725Z,15.81
2018-09-28T11:55:18.268Z,15.61
2018-09-28T11:57:46.819Z,15.49
2018-09-28T12:00:15.328Z,15.48
2018-09-28T12:02:43.825Z,15.45
2018-09-28T12:05:12.454Z,15.58
2018-09-28T12:07:40.963Z,15.67
2018-09-28T12:10:09.552Z,15.71
2018-09-28T12:12:38.094Z,15.76
2018-09-28T12:15:06.753Z,16.06
2018-09-28T12:17:35.221Z,16.25
2018-09-28T12:20:03.950Z,16.15
2018-09-28T12:22:32.454Z,16.03
2018-09-28T12:25:00.966Z,15.85
2018-09-28T12:27:29.485Z,15.65
2018-09-28T12:29:58.263Z,15.48
2018-09-28T12:32:26.791Z,15.58
2018-09-28T12:34:55.270Z,15.76
2018-09-28T12:37:23.810Z,15.60
2018-09-28T12:39:52.480Z,15.66
2018-09-28T12:42:20.977Z,15.75
2018-09-28T12:44:49.585Z,15.80
2018-09-28T12:47:24.340Z,15.79
2018-09-28T12:49:52.851Z,16.10
2018-09-28T12:52:21.415Z,16.55
2018-09-28T12:54:50.110Z,16.50
2018-09-28T12:57:18.601Z,16.23
2018-09-28T12:59:47.103Z,15.83
2018-09-28T13:02:15.657Z,15.68
2018-09-28T13:04:44.185Z,15.77
2018-09-28T13:07:12.784Z,15.95
2018-09-28T13:09:41.305Z,16.24
2018-09-28T13:12:09.976Z,16.59
2018-09-28T13:14:38.554Z,16.67
2018-09-28T13:17:07.152Z,16.38
2018-09-28T13:19:35.698Z,15.95
2018-09-28T13:22:04.213Z,15.58
2018-09-28T13:24:32.759Z,15.32
2018-09-28T13:27:01.334Z,15.03
2018-09-28T13:29:29.862Z,14.84
2018-09-28T13:31:58.379Z,14.62
2018-09-28T13:34:26.914Z,14.65
2018-09-28T13:36:55.481Z,15.00
2018-09-28T13:39:24.066Z,15.31
2018-09-28T13:41:52.555Z,15.75
2018-09-28T13:44:21.136Z,16.12
2018-09-28T13:46:49.866Z,16.32
2018-09-28T13:49:18.359Z,16.48
2018-09-28T13:51:46.975Z,16.74
2018-09-28T13:54:16.311Z,16.47
2018-09-28T13:56:44.908Z,16.36
2018-09-28T13:59:14.714Z,16.32
2018-09-28T14:01:43.324Z,16.28
2018-09-28T14:04:11.822Z,16.14
2018-09-28T14:06:40.398Z,16.17
2018-09-28T14:09:09.926Z,16.17
2018-09-28T14:11:38.669Z,16.42
2018-09-28T14:14:07.324Z,16.20
2018-09-28T14:16:37.227Z,16.27
2018-09-28T14:19:05.815Z,16.38
2018-09-28T14:21:34.623Z,16.50
2018-09-28T14:24:03.216Z,16.44
2018-09-28T14:26:31.749Z,16.30
2018-09-28T14:29:00.299Z,15.78
2018-09-28T14:31:29.502Z,15.60
2018-09-28T14:33:58.080Z,15.77
2018-09-28T14:36:26.679Z,15.76
2018-09-28T14:38:55.226Z,15.93
2018-09-28T14:41:23.740Z,15.87
2018-09-28T14:43:52.269Z,15.61
2018-09-28T14:46:20.863Z,15.82
2018-09-28T14:48:49.572Z,15.75
2018-09-28T14:51:18.265Z,15.60
2018-09-28T14:53:47.530Z,15.30
2018-09-28T14:56:16.902Z,15.15
2018-09-28T14:58:46.234Z,15.11
2018-09-28T15:01:15.526Z,14.97
2018-09-28T15:03:44.042Z,14.82
2018-09-28T15:06:12.597Z,14.83
2018-09-28T15:08:41.276Z,14.70
2018-09-28T15:11:09.762Z,14.65
2018-09-28T15:13:38.352Z,14.52
2018-09-28T15:16:07.357Z,14.49
2018-09-28T15:18:37.217Z,14.49
2018-09-28T15:21:05.991Z,14.67
2018-09-28T15:23:34.766Z,14.93
2018-09-28T15:26:03.434Z,15.48
2018-09-28T15:28:32.091Z,15.77
2018-09-28T15:31:01.775Z,15.74
2018-09-28T15:33:33.074Z,15.62
2018-09-28T15:36:02.425Z,15.82
2018-09-28T15:38:30.935Z,15.89
2018-09-28T15:40:59.569Z,15.78
2018-09-28T15:43:28.100Z,15.72
2018-09-28T15:45:57.569Z,15.34
2018-09-28T15:48:26.064Z,15.03
2018-09-28T15:50:55.275Z,14.85
2018-09-28T15:53:23.782Z,14.73
2018-09-28T15:55:52.314Z,14.83
2018-09-28T15:58:21.081Z,14.79
2018-09-28T16:00:49.770Z,14.59
2018-09-28T16:03:18.286Z,14.45
2018-09-28T16:05:47.610Z,14.46
2018-09-28T16:08:16.102Z,14.41
2018-09-28T16:10:44.634Z,14.28
2018-09-28T16:13:13.174Z,14.25
2018-09-28T16:15:41.693Z,14.17
2018-09-28T16:18:11.459Z,14.06
2018-09-28T16:20:40.769Z,13.94
2018-09-28T16:23:09.269Z,13.91
2018-09-28T16:25:37.757Z,13.84
2018-09-28T16:28:06.279Z,13.74
2018-09-28T16:30:34.813Z,13.71
2018-09-28T16:33:03.321Z,13.64
2018-09-28T16:35:32.083Z,13.57
2018-09-28T16:38:00.505Z,13.57
2018-09-28T16:40:29.087Z,13.40
2018-09-28T16:42:57.603Z,13.25
2018-09-28T16:45:26.205Z,13.30
2018-09-28T16:47:56.234Z,13.28
2018-09-28T16:50:24.865Z,13.13
2018-09-28T16:52:53.581Z,13.18
2018-09-28T16:55:22.281Z,13.07
2018-09-28T16:57:50.956Z,12.91
2018-09-28T17:00:19.454Z,12.91
2018-09-28T17:02:48.019Z,12.87
2018-09-28T17:05:16.502Z,12.78
2018-09-28T17:07:45.018Z,12.76
2018-09-28T17:10:13.522Z,12.62
2018-09-28T17:12:42.009Z,12.67
2018-09-28T17:15:10.629Z,12.57
2018-09-28T17:17:39.249Z,12.50
2018-09-28T17:20:07.899Z,12.38
2018-09-28T17:22:36.504Z,12.37
2018-09-28T17:25:05.005Z,12.24
2018-09-28T17:27:33.578Z,12.08
2018-09-28T17:34:52.151Z,12.11
2018-09-28T17:37:20.735Z,12.12
2018-09-28T17:39:49.284Z,12.14
2018-09-28T17:42:17.765Z,12.19
2018-09-28T17:44:47.077Z,12.18
2018-09-28T17:47:15.681Z,12.22
2018-09-28T17:49:44.203Z,12.12
2018-09-28T17:52:12.660Z,11.98
2018-09-28T17:54:41.261Z,11.90
2018-09-28T17:57:09.798Z,11.85
2018-09-28T17:59:38.290Z,11.78
2018-09-28T18:02:12.376Z,11.66
2018-09-28T18:04:41.690Z,11.65
2018-09-28T18:07:10.193Z,11.63
2018-09-28T18:09:38.715Z,11.50
2018-09-28T18:14:34.723Z,11.42
2018-09-28T18:17:03.274Z,11.38
2018-09-28T18:19:31.838Z,11.29
2018-09-28T18:22:00.442Z,11.21
2018-09-28T18:24:29.004Z,11.10
2018-09-28T18:26:57.569Z,11.02
2018-09-28T18:29:27.191Z,10.99
2018-09-28T18:31:55.686Z,11.02
2018-09-28T18:34:24.284Z,10.97
2018-09-28T18:36:52.814Z,10.82
2018-09-28T18:39:21.406Z,10.85
2018-09-28T18:41:50.623Z,10.65
2018-09-28T18:44:19.085Z,10.65
2018-09-28T18:46:47.565Z,10.57
2018-09-28T18:49:16.402Z,10.41
2018-09-28T18:51:44.916Z,10.30
2018-09-28T18:54:13.410Z,10.19
2018-09-28T18:56:41.978Z,10.06
2018-09-28T18:59:11.335Z,9.95
2018-09-28T19:01:39.885Z,9.88
2018-09-28T19:04:10.311Z,9.78
2018-09-28T19:06:38.854Z,9.65
2018-09-28T19:09:09.473Z,9.48
2018-09-28T19:11:38.311Z,9.37
2018-09-28T19:14:06.825Z,9.30
2018-09-28T19:16:35.330Z,9.25
2018-09-28T19:19:03.873Z,9.21
2018-09-28T19:21:32.524Z,9.17
2018-09-28T19:24:01.177Z,9.10
2018-09-28T19:26:29.702Z,9.12
2018-09-28T19:28:58.738Z,9.01
2018-09-28T19:31:27.289Z,8.96
2018-09-28T19:33:56.585Z,8.84
2018-09-28T19:36:25.859Z,8.82
2018-09-28T19:38:54.561Z,8.79
2018-09-28T19:41:23.103Z,8.82
2018-09-28T19:43:52.626Z,8.79
2018-09-28T19:46:21.222Z,8.74
2018-09-28T19:48:49.739Z,8.74
2018-09-28T19:51:18.441Z,8.71
2018-09-28T19:53:47.141Z,8.63
2018-09-28T19:56:15.668Z,8.55
2018-09-28T19:58:44.581Z,8.50
2018-09-28T20:01:13.163Z,8.44
2018-09-28T20:03:41.689Z,8.38
2018-09-28T20:06:10.381Z,8.36
2018-09-28T20:08:38.954Z,8.17
2018-09-28T20:11:07.505Z,8.05
2018-09-28T20:13:35.990Z,7.99
2018-09-28T20:16:04.476Z,7.83
2018-09-28T20:18:33.349Z,7.89
2018-09-28T20:21:01.967Z,7.81
2018-09-28T20:23:30.633Z,7.74
2018-09-28T20:25:59.166Z,7.68
2018-09-28T20:28:27.670Z,7.65
2018-09-28T20:30:56.237Z,7.54
2018-09-28T20:33:24.821Z,7.50
2018-09-28T20:35:53.400Z,7.42
2018-09-28T20:38:22.057Z,7.39
2018-09-28T20:40:50.602Z,7.42
2018-09-28T20:43:19.173Z,7.40
2018-09-28T20:45:47.647Z,7.32
2018-09-28T20:48:16.255Z,7.30
2018-09-28T20:50:44.714Z,7.27
2018-09-28T20:53:13.296Z,7.23
2018-09-28T20:55:41.871Z,7.20
2018-09-28T20:58:10.311Z,7.23
2018-09-28T21:00:39.046Z,7.23
2018-09-28T21:03:07.613Z,7.23
2018-09-28T21:05:36.666Z,7.24
2018-09-28T21:08:05.179Z,7.23
2018-09-28T21:10:33.734Z,7.17
2018-09-28T21:13:02.270Z,7.09
2018-09-28T21:15:31.105Z,7.04
2018-09-28T21:17:59.585Z,7.03
2018-09-28T21:20:28.067Z,6.96
2018-09-28T21:22:56.625Z,6.90
2018-09-28T21:25:25.545Z,6.81
2018-09-28T21:27:54.029Z,6.77
2018-09-28T21:30:22.556Z,6.69
2018-09-28T21:32:51.091Z,6.66
2018-09-28T21:35:19.588Z,6.65
2018-09-28T21:37:48.122Z,6.64
2018-09-28T21:40:16.927Z,6.62
2018-09-28T21:42:45.733Z,6.57
2018-09-28T21:45:14.205Z,6.50
2018-09-28T21:47:42.757Z,6.40
2018-09-28T21:50:11.921Z,6.38
2018-09-28T21:52:40.378Z,6.33
2018-09-28T21:55:08.938Z,6.32
2018-09-28T21:57:38.645Z,6.30
2018-09-28T22:00:07.833Z,6.30
2018-09-28T22:02:36.589Z,6.24
2018-09-28T22:05:05.241Z,6.12
2018-09-28T22:07:33.778Z,5.87
2018-09-28T22:10:02.331Z,5.80
2018-09-28T22:12:30.798Z,5.83
2018-09-28T22:14:59.342Z,5.82
2018-09-28T22:17:27.896Z,5.77
2018-09-28T22:19:56.462Z,5.57
2018-09-28T22:22:24.951Z,5.68
2018-09-28T22:24:53.443Z,5.71
2018-09-28T22:27:22.444Z,5.73
2018-09-28T22:29:50.983Z,5.68
2018-09-28T22:32:20.266Z,5.67
2018-09-28T22:34:48.766Z,5.66
2018-09-28T22:37:17.766Z,5.74
2018-09-28T22:39:46.265Z,5.78
2018-09-28T22:42:14.813Z,5.67
2018-09-28T22:44:43.377Z,5.54
2018-09-28T22:47:11.926Z,5.54
2018-09-28T22:49:40.401Z,5.56
2018-09-28T22:52:08.893Z,5.51
2018-09-28T22:54:38.561Z,5.50
2018-09-28T22:57:10.021Z,5.45
2018-09-28T22:59:38.561Z,5.50
2018-09-28T23:02:07.110Z,5.45
2018-09-28T23:04:35.617Z,5.49
2018-09-28T23:07:04.141Z,5.51
2018-09-28T23:09:32.629Z,5.54
2018-09-28T23:12:01.222Z,5.47
2018-09-28T23:14:29.713Z,5.44
2018-09-28T23:16:58.235Z,5.44
2018-09-28T23:19:26.816Z,5.41
2018-09-28T23:21:55.318Z,5.40
2018-09-28T23:24:23.905Z,5.33
2018-09-28T23:26:52.404Z,5.33
2018-09-28T23:29:21.158Z,5.21
2018-09-28T23:31:49.651Z,5.18
2018-09-28T23:34:18.242Z,5.18
2018-09-28T23:36:46.834Z,5.22
2018-09-28T23:39:15.917Z,5.17
2018-09-28T23:41:45.119Z,5.16
2018-09-28T23:44:13.639Z,5.16
2018-09-28T23:46:42.194Z,4.99
2018-09-28T23:49:10.669Z,4.92
2018-09-28T23:51:39.194Z,4.92
2018-09-28T23:54:07.665Z,4.86
2018-09-28T23:56:36.770Z,4.86
2018-09-28T23:59:06.062Z,4.83
